Latest Weather Observations for Essendon Airport

IDV60901

Issued at 8:25 pm EST Monday 28 July 2014 (issued every 10 minutes, with the page automatically refreshed every 10 minutes)

About weather observations | Map of Melbourne area stations | Latest observations for Melbourne area | Other Formats
Station Details ID: 086038 Name: ESSENDON AIRPORT Lat: -37.73 Lon: 144.91 Height: 78.4 m
Data from the previous 72 hours. | See also: Recent months at Essendon Airport
Date/Time
EST
Tmp

°C
App
Tmp
°C
Dew
Point
°C
Rel
Hum
%
Delta-T

°C
Wind Press
QNH
hPa
Press
MSL
hPa
Rain
since
9 am
mm
Dir
 
Spd
km/h
Gust
km/h
Spd
kts
Gust
kts
28/08:00pm 12.7 8.1 8.0 73 2.3 N 22 32 12 17 1013.0 - 0.0
28/07:30pm 13.1 7.3 8.0 71 2.5 N 28 41 15 22 1012.4 - 0.0
28/07:00pm 12.9 7.2 8.4 74 2.2 N 28 39 15 21 1012.1 - 0.0
28/06:30pm 12.8 7.5 8.3 74 2.2 N 26 37 14 20 1012.1 - 0.0
28/06:00pm 12.7 8.0 7.8 72 2.4 N 22 32 12 17 1012.4 1012.5 0.0
28/05:30pm 13.7 8.7 8.1 69 2.8 N 24 32 13 17 1012.4 - 0.0
28/05:00pm 14.5 10.2 8.0 65 3.3 N 20 30 11 16 1012.8 - 0.0
28/04:30pm 15.6 11.2 7.6 59 4.0 NNW 20 30 11 16 1012.8 - 0.0
28/04:00pm 15.4 9.3 8.4 63 3.6 N 30 41 16 22 1012.0 - 0.0
28/03:30pm 15.2 8.5 8.2 63 3.5 N 33 44 18 24 1011.9 - 0.0
28/03:00pm 15.4 9.3 8.4 63 3.6 N 30 41 16 22 1012.1 1012.2 0.0
28/02:30pm 15.4 9.2 7.9 61 3.8 N 30 43 16 23 1012.5 - 0.0
28/02:00pm 14.9 8.7 7.9 63 3.5 N 30 43 16 23 1012.8 - 0.0
28/01:30pm 14.5 7.7 7.5 63 3.5 N 33 48 18 26 1013.2 - 0.0
28/01:25pm 14.6 8.3 7.6 63 3.5 N 30 48 16 26 1013.2 - 0.0
28/01:00pm 15.0 8.8 7.8 62 3.6 N 30 43 16 23 1013.8 - 0.0
28/12:44pm 14.9 8.9 7.2 60 3.8 N 28 46 15 25 1013.9 - 0.0
28/12:30pm 14.6 7.7 7.2 61 3.6 N 33 44 18 24 1014.0 - 0.0
28/12:02pm 14.3 7.4 7.1 62 3.5 N 33 52 18 28 1014.5 - 0.0
28/12:00pm 14.1 7.1 6.9 62 3.5 N 33 46 18 25 1014.5 1014.6 0.0
28/11:30am 13.3 5.6 7.1 66 3.0 N 37 52 20 28 1014.9 - 0.0
28/11:00am 13.0 5.2 6.8 66 3.0 N 37 50 20 27 1015.0 - 0.0
28/10:38am 12.1 4.2 6.4 68 2.7 N 37 56 20 30 1015.2 - 0.0
28/10:30am 12.0 4.5 6.3 68 2.7 N 35 50 19 27 1015.4 - 0.0
28/10:00am 11.2 2.9 6.1 71 2.4 N 39 52 21 28 1015.6 - 0.0
28/09:30am 10.8 2.9 6.0 72 2.2 N 37 52 20 28 1016.2 - 0.0
28/09:21am 10.6 3.6 5.8 72 2.2 N 32 50 17 27 1016.3 - 0.0
28/09:00am 10.1 3.0 5.7 74 2.0 N 32 44 17 24 1016.1 1016.2 0.0
28/08:30am 9.5 0.7 5.7 77 1.7 N 41 59 22 32 1015.5 - 0.0
28/08:00am 9.1 1.4 5.5 78 1.6 N 35 54 19 29 1015.9 - 0.0
28/07:58am 9.1 1.4 5.5 78 1.6 N 35 54 19 29 1015.9 - 0.0
28/07:30am 8.8 1.7 5.4 79 1.5 N 32 44 17 24 1016.2 - 0.0
28/07:00am 8.4 1.7 5.5 82 1.3 N 30 43 16 23 1016.2 - 0.0
28/06:30am 8.4 1.3 5.7 83 1.2 N 32 44 17 24 1016.2 - 0.0
28/06:00am 8.7 1.5 5.8 82 1.3 N 33 46 18 25 1016.2 1016.3 0.0
28/05:30am 9.1 2.1 6.0 81 1.4 N 32 44 17 24 1016.2 - 0.0
28/05:07am 9.2 2.2 5.9 80 1.5 N 32 50 17 27 1016.3 - 0.0
28/05:00am 9.4 1.9 6.1 80 1.5 N 35 50 19 27 1016.2 - 0.0
28/04:54am 9.4 2.4 6.1 80 1.5 N 32 50 17 27 1016.0 - 0.0
28/04:30am 9.5 2.4 6.2 80 1.5 N 33 46 18 25 1016.0 - 0.0
28/04:00am 9.8 2.7 6.3 79 1.6 N 33 46 18 25 1016.1 - 0.0
28/03:37am 9.8 2.9 6.5 80 1.5 N 32 50 17 27 1016.5 - 0.0
28/03:30am 9.8 3.7 6.7 81 1.5 N 28 44 15 24 1016.6 - 0.0
28/03:00am 9.7 3.6 6.8 82 1.4 N 28 43 15 23 1017.1 1017.2 0.0
28/02:30am 9.7 4.1 7.0 83 1.3 N 26 41 14 22 1017.4 - 0.0
28/02:00am 9.7 3.3 7.0 83 1.3 N 30 46 16 25 1017.5 - 0.0
28/01:30am 9.9 3.0 7.3 84 1.2 N 33 46 18 25 1017.7 - 0.0
28/01:00am 10.1 4.2 7.5 84 1.2 N 28 46 15 25 1018.4 - 0.0
28/12:52am 10.2 4.4 7.8 85 1.2 N 28 46 15 25 1018.4 - 0.0
28/12:30am 10.2 4.3 7.6 84 1.3 N 28 39 15 21 1018.7 - 0.0
28/12:00am 10.3 4.1 7.9 85 1.2 N 30 43 16 23 1018.8 1018.9 0.0
 
Date/Time
EST
Tmp

°C
App
Tmp
°C
Dew
Point
°C
Rel
Hum
%
Delta-T

°C
Wind Press
QNH
hPa
Press
MSL
hPa
Rain
since
9 am
mm
Dir
 
Spd
km/h
Gust
km/h
Spd
kts
Gust
kts
27/11:30pm 10.5 4.7 7.9 84 1.3 N 28 39 15 21 1019.2 - 0.0
27/11:00pm 10.6 5.3 8.4 86 1.1 N 26 37 14 20 1019.6 - 0.0
27/10:30pm 10.7 5.8 8.5 86 1.1 N 24 33 13 18 1020.2 - 0.0
27/10:00pm 10.9 6.4 8.5 85 1.2 N 22 28 12 15 1020.4 - 0.0
27/09:30pm 11.2 6.6 8.2 82 1.5 N 22 32 12 17 1020.4 - 0.0
27/09:00pm 11.4 7.2 8.1 80 1.6 N 20 32 11 17 1020.5 1020.6 0.0
27/08:30pm 11.5 7.9 8.2 80 1.6 N 17 22 9 12 1020.8 - 0.0
27/08:00pm 11.6 8.3 8.1 79 1.7 N 15 20 8 11 1020.8 - 0.0
27/07:30pm 11.8 8.5 8.1 78 1.8 N 15 20 8 11 1020.9 - 0.0
27/07:00pm 12.1 8.0 8.0 76 2.0 N 19 28 10 15 1020.4 - 0.0
27/06:30pm 12.2 8.4 7.7 74 2.2 N 17 28 9 15 1020.2 - 0.0
27/06:00pm 12.7 8.3 7.4 70 2.6 N 20 32 11 17 1020.0 1020.1 0.0
27/05:30pm 13.4 9.5 7.2 66 3.0 N 17 22 9 12 1020.4 - 0.0
27/05:00pm 14.2 9.9 7.0 62 3.5 NNW 19 26 10 14 1020.6 - 0.0
27/04:30pm 14.4 10.4 6.7 60 3.7 NNW 17 22 9 12 1020.6 - 0.0
27/04:00pm 14.4 9.5 7.0 61 3.6 NW 22 30 12 16 1020.9 - 0.0
27/03:30pm 14.7 10.7 8.2 65 3.3 N 19 24 10 13 1020.5 - 0.0
27/03:00pm 14.8 10.6 8.3 65 3.3 N 20 30 11 16 1020.6 1020.7 0.0
27/02:30pm 15.3 10.7 8.3 63 3.5 N 22 32 12 17 1020.2 - 0.0
27/02:00pm 15.9 11.0 8.6 62 3.7 N 24 32 13 17 1020.2 - 0.0
27/01:30pm 15.6 10.2 8.1 61 3.8 N 26 35 14 19 1020.7 - 0.0
27/01:00pm 15.7 11.1 8.0 60 3.9 N 22 35 12 19 1021.5 - 0.0
27/12:30pm 15.3 10.2 7.6 60 3.8 NNW 24 35 13 19 1022.0 - 0.0
27/12:00pm 14.2 8.6 8.8 70 2.7 N 28 37 15 20 1022.5 1022.6 0.0
27/11:30am 13.9 9.1 8.7 71 2.6 N 24 35 13 19 1023.1 - 0.0
27/11:00am 13.9 9.1 8.9 72 2.5 N 24 33 13 18 1023.7 - 0.0
27/10:30am 12.9 8.0 8.4 74 2.2 N 24 32 13 17 1024.3 - 0.0
27/10:00am 12.6 8.9 8.1 74 2.2 N 17 22 9 12 1024.7 - 0.0
27/09:30am 11.9 8.5 7.8 76 2.0 NNW 15 19 8 10 1024.9 - 0.0
27/09:00am 10.4 7.3 7.3 81 1.5 N 13 17 7 9 1024.8 1024.9 0.8
27/08:30am 8.4 4.3 6.0 85 1.1 N 17 20 9 11 1024.6 - 0.8
27/08:00am 7.4 3.1 5.4 87 0.9 N 17 20 9 11 1024.7 - 0.8
27/07:30am 6.5 2.5 4.7 88 0.8 N 15 17 8 9 1024.6 - 0.8
27/07:00am 6.8 2.0 4.8 87 0.9 N 19 20 10 11 1024.3 - 0.8
27/06:30am 6.9 2.1 4.9 87 0.9 N 19 22 10 12 1024.2 - 0.8
27/06:00am 6.6 2.2 4.6 87 0.9 N 17 22 9 12 1024.2 1024.3 0.8
27/05:30am 7.0 2.7 5.2 88 0.8 N 17 20 9 11 1024.3 - 0.8
27/05:00am 7.2 3.0 5.5 89 0.8 N 17 20 9 11 1024.3 - 0.8
27/04:30am 6.6 2.7 5.2 91 0.6 N 15 17 8 9 1024.4 - 0.8
27/04:00am 6.9 3.1 5.7 92 0.5 N 15 17 8 9 1024.6 - 0.8
27/03:30am 7.1 3.3 5.9 92 0.5 N 15 17 8 9 1024.8 - 0.8
27/03:00am 7.3 3.6 6.1 92 0.5 N 15 15 8 8 1024.9 1025.0 0.8
27/02:30am 7.5 4.2 6.3 92 0.5 N 13 15 7 8 1025.0 - 0.8
27/02:00am 7.5 4.5 6.1 91 0.6 N 11 13 6 7 1024.9 - 0.8
27/01:30am 8.8 6.0 6.8 87 0.9 NNW 11 13 6 7 1025.0 - 0.8
27/01:00am 9.5 6.4 7.1 85 1.1 NW 13 15 7 8 1025.1 - 0.8
27/12:30am 9.8 7.1 7.4 85 1.1 NW 11 15 6 8 1025.4 - 0.8
27/12:00am 9.9 7.2 7.2 83 1.3 NW 11 15 6 8 1025.4 1025.6 0.8
 
Date/Time
EST
Tmp

°C
App
Tmp
°C
Dew
Point
°C
Rel
Hum
%
Delta-T

°C
Wind Press
QNH
hPa
Press
MSL
hPa
Rain
since
9 am
mm
Dir
 
Spd
km/h
Gust
km/h
Spd
kts
Gust
kts
26/11:30pm 10.9 8.0 8.0 82 1.4 NW 13 15 7 8 1025.5 - 0.8
26/11:00pm 11.0 8.1 8.0 82 1.5 WNW 13 15 7 8 1025.7 - 0.8
26/10:30pm 11.1 8.6 8.3 83 1.4 W 11 15 6 8 1025.7 - 0.8
26/10:00pm 11.3 7.7 8.2 81 1.5 WSW 17 22 9 12 1025.7 - 0.8
26/09:30pm 11.8 7.7 8.8 82 1.5 WSW 20 28 11 15 1025.6 - 0.8
26/09:00pm 11.7 8.8 9.6 87 1.1 W 15 19 8 10 1025.4 1025.6 0.8
26/08:30pm 11.8 9.7 9.7 87 1.1 W 11 17 6 9 1025.2 - 0.8
26/08:00pm 12.0 8.4 9.7 86 1.2 W 19 26 10 14 1024.9 - 0.8
26/07:30pm 12.1 8.8 9.7 85 1.2 W 17 22 9 12 1024.9 - 0.8
26/07:00pm 12.1 9.7 10.0 87 1.1 W 13 17 7 9 1024.6 - 0.8
26/06:30pm 12.1 8.9 9.8 86 1.2 W 17 22 9 12 1024.4 - 0.6
26/06:00pm 12.0 8.2 9.9 87 1.1 WSW 20 26 11 14 1024.2 1024.3 0.6
26/05:30pm 12.1 8.6 10.3 89 0.9 WSW 19 24 10 13 1023.9 - 0.6
26/05:00pm 12.1 9.5 10.8 92 0.7 SW 15 20 8 11 1023.7 - 0.4
26/04:30pm 12.3 8.3 10.4 88 1.0 SSW 22 28 12 15 1023.5 - 0.4
26/04:00pm 14.2 10.1 8.8 70 2.7 W 20 26 11 14 1023.0 - 0.0
26/03:30pm 14.3 9.9 9.1 71 2.7 W 22 28 12 15 1022.8 - 0.0
26/03:00pm 15.0 10.4 9.8 71 2.7 W 24 32 13 17 1022.6 1022.7 0.0
26/02:30pm 14.4 10.5 9.4 72 2.6 WSW 20 30 11 16 1022.4 - 0.0
26/02:00pm 14.0 9.7 9.4 74 2.4 WSW 22 30 12 16 1022.3 - 0.0
26/01:30pm 14.0 9.2 8.8 71 2.6 W 24 32 13 17 1022.3 - 0.0
26/01:00pm 13.9 10.0 9.3 74 2.4 W 20 28 11 15 1022.4 - 0.0
26/12:30pm 13.3 11.1 9.2 76 2.1 NW 11 15 6 8 1022.7 - 0.0
26/12:00pm 12.9 9.2 9.4 79 1.8 WNW 19 26 10 14 1023.1 1023.2 0.0
26/11:30am 14.0 9.7 9.4 74 2.4 WNW 22 30 12 16 1023.4 - 0.0
26/11:00am 13.8 9.7 8.6 71 2.6 W 20 32 11 17 1023.5 - 0.0
26/10:30am 13.1 9.1 8.4 73 2.3 WNW 19 26 10 14 1023.6 - 0.0
26/10:00am 12.9 9.0 8.6 75 2.2 WNW 19 26 10 14 1023.6 - 0.0
26/09:30am 12.8 8.8 8.9 77 2.0 W 20 28 11 15 1023.3 - 0.0
26/09:00am 12.4 9.3 8.9 79 1.8 WNW 15 19 8 10 1022.9 1023.0 0.0
26/08:30am 12.1 8.9 8.6 79 1.7 NW 15 19 8 10 1022.5 - 0.0
26/08:00am 11.5 9.1 8.5 82 1.5 NNW 11 17 6 9 1022.3 - 0.0
26/07:30am 10.5 8.5 8.8 89 0.8 NNW 9 17 5 9 1022.1 - 0.0
26/07:00am 11.1 8.4 8.8 86 1.1 NNW 13 19 7 10 1021.8 - 0.0
26/06:30am 11.0 8.7 9.1 88 0.9 NNW 11 13 6 7 1021.5 - 0.0
26/06:00am 11.1 9.1 8.7 85 1.2 NNW 9 13 5 7 1021.1 1021.2 0.0
26/05:30am 11.4 8.6 8.6 83 1.4 NNW 13 15 7 8 1020.8 - 0.0
26/05:00am 11.5 8.0 8.7 83 1.4 NNW 17 20 9 11 1020.5 - 0.0
26/04:30am 11.5 8.5 9.1 85 1.2 NNW 15 20 8 11 1020.3 - 0.0
26/04:00am 11.0 8.3 8.9 87 1.0 N 13 17 7 9 1020.3 - 0.0
26/03:30am 11.3 8.5 8.5 83 1.4 N 13 17 7 9 1020.1 - 0.0
26/03:00am 11.6 8.5 8.8 83 1.4 N 15 19 8 10 1020.1 1020.2 0.0
26/02:30am 11.7 9.3 8.6 81 1.5 N 11 13 6 7 1020.2 - 0.0
26/02:00am 12.1 9.3 8.6 79 1.7 N 13 19 7 10 1020.1 - 0.0
26/01:30am 12.2 9.5 8.9 80 1.7 N 13 20 7 11 1020.0 - 0.0
26/01:00am 12.2 9.5 8.9 80 1.7 N 13 17 7 9 1019.8 - 0.0
26/12:30am 12.3 9.6 8.8 79 1.8 N 13 22 7 12 1019.9 - 0.0
26/12:00am 12.2 9.4 8.7 79 1.7 N 13 17 7 9 1019.8 1019.9 0.0
 
Date/Time
EST
Tmp

°C
App
Tmp
°C
Dew
Point
°C
Rel
Hum
%
Delta-T

°C
Wind Press
QNH
hPa
Press
MSL
hPa
Rain
since
9 am
mm
Dir
 
Spd
km/h
Gust
km/h
Spd
kts
Gust
kts
25/11:30pm 11.9 9.1 8.6 80 1.6 N 13 17 7 9 1019.7 - 0.0
25/11:00pm 12.1 8.9 8.6 79 1.7 N 15 19 8 10 1019.7 - 0.0
25/10:30pm 12.3 9.6 8.8 79 1.8 N 13 17 7 9 1019.4 - 0.0
25/10:00pm 12.4 9.3 8.9 79 1.8 NNW 15 19 8 10 1019.4 - 0.0
25/09:30pm 12.5 9.8 9.0 79 1.8 N 13 20 7 11 1019.2 - 0.0
25/09:00pm 13.0 10.0 9.4 79 1.8 N 15 20 8 11 1018.7 1018.8 0.0
25/08:30pm 12.7 10.1 9.5 81 1.6 N 13 19 7 10 1018.7 - 0.0

Latest Capital City Observations: Canberra | Sydney | Melbourne | Brisbane | Adelaide | Perth | Hobart | Darwin

Other Formats:

Comma delimited format used in spreadsheet applications
http://www.bom.gov.au/fwo/IDV60901/IDV60901.95866.axf

JavaScript Object Notation format (JSON) in row-major order
http://www.bom.gov.au/fwo/IDV60901/IDV60901.95866.json